Time;durP1;ratioP1;P1;durP2;ratioP2;P2;SDS_P1;SDS_P2;PMS_P1;PMS_P2;Temp;Humidity;BMP_temperature;BMP_pressure;BME280_temperature;BME280_humidity;BME280_pressure;Samples;Min_cycle;Max_cycle;Signal;HPM_P1;HPM_P2
2022/03/21 00:02:26;;;;;;;12.82;11.55;;;20.10;43.90;;;;;;4992664;28;20213;-67
2022/03/21 00:04:53;;;;;;;12.50;11.18;;;20.10;43.80;;;;;;4976471;28;20256;-67
2022/03/21 00:07:19;;;;;;;12.07;10.88;;;20.10;43.90;;;;;;4976243;28;20216;-67
2022/03/21 00:09:45;;;;;;;11.80;10.70;;;20.10;43.90;;;;;;4992175;28;20204;-67
2022/03/21 00:12:13;;;;;;;11.63;10.52;;;20.10;43.90;;;;;;4976221;28;20185;-67
2022/03/21 00:14:42;;;;;;;12.30;11.00;;;20.10;43.90;;;;;;4992431;28;20212;-67
2022/03/21 00:17:09;;;;;;;11.80;10.60;;;20.00;43.80;;;;;;4976237;28;20188;-67
2022/03/21 00:19:35;;;;;;;12.82;11.55;;;20.10;43.90;;;;;;4992193;28;20635;-67
2022/03/21 00:22:01;;;;;;;13.65;11.05;;;20.10;43.90;;;;;;4992234;28;20243;-67
2022/03/21 00:24:27;;;;;;;11.82;10.60;;;20.10;43.90;;;;;;4992265;28;20193;-67
2022/03/21 00:26:53;;;;;;;11.32;10.23;;;20.10;43.80;;;;;;4991517;28;20686;-67
2022/03/21 00:29:28;;;;;;;11.93;10.82;;;20.10;43.90;;;;;;4975675;28;20235;-67
2022/03/21 00:31:55;;;;;;;11.95;10.75;;;20.00;43.70;;;;;;4976161;28;20221;-67
2022/03/21 00:34:22;;;;;;;11.73;10.57;;;20.00;43.60;;;;;;4976041;28;20195;-67
2022/03/21 00:36:48;;;;;;;11.60;10.40;;;20.10;43.80;;;;;;4992305;28;20189;-67
2022/03/21 00:39:15;;;;;;;12.60;11.30;;;20.10;43.70;;;;;;4991903;28;20215;-67
2022/03/21 00:41:41;;;;;;;11.18;10.05;;;20.00;43.60;;;;;;4975673;28;20211;-67
2022/03/21 00:44:07;;;;;;;11.20;10.10;;;20.00;43.60;;;;;;4991948;28;20180;-67
2022/03/21 00:46:34;;;;;;;11.13;10.10;;;20.10;43.80;;;;;;4975893;28;20223;-67
2022/03/21 00:49:00;;;;;;;10.60;9.50;;;20.00;43.80;;;;;;4959477;28;20204;-67
2022/03/21 00:51:25;;;;;;;11.65;10.50;;;20.00;43.80;;;;;;4993042;28;20204;-67
2022/03/21 00:53:51;;;;;;;11.60;10.45;;;20.10;43.80;;;;;;4975614;28;20181;-67
2022/03/21 00:56:17;;;;;;;11.27;10.18;;;20.00;43.80;;;;;;4991772;28;20192;-67
2022/03/21 00:58:42;;;;;;;10.95;9.85;;;20.10;43.90;;;;;;4959154;28;20213;-67
2022/03/21 01:01:08;;;;;;;10.57;9.48;;;20.00;43.80;;;;;;4975469;28;20188;-67
2022/03/21 01:03:34;;;;;;;9.98;9.07;;;20.00;43.80;;;;;;4975770;28;20188;-67
2022/03/21 01:05:59;;;;;;;10.07;9.10;;;20.00;43.80;;;;;;4975690;28;20220;-67
2022/03/21 01:08:25;;;;;;;10.73;9.63;;;20.00;43.80;;;;;;4992734;28;20201;-67
2022/03/21 01:10:51;;;;;;;11.63;10.43;;;20.00;43.80;;;;;;4992623;28;20185;-67
2022/03/21 01:13:18;;;;;;;11.32;10.23;;;20.00;43.80;;;;;;4975433;28;20181;-67
2022/03/21 01:15:44;;;;;;;10.07;9.23;;;20.10;43.90;;;;;;4991749;28;20216;-67
2022/03/21 01:18:10;;;;;;;9.82;8.90;;;20.00;43.80;;;;;;4975179;28;20213;-67
2022/03/21 01:20:36;;;;;;;10.75;9.65;;;20.00;43.70;;;;;;4959376;28;20184;-67
2022/03/21 01:23:02;;;;;;;10.77;9.68;;;20.00;43.70;;;;;;4959246;28;20215;-67
2022/03/21 01:25:28;;;;;;;10.63;9.63;;;20.00;43.60;;;;;;4959084;28;20216;-67
2022/03/21 01:27:54;;;;;;;10.65;9.65;;;20.00;43.60;;;;;;4975170;28;20208;-67
2022/03/21 01:30:20;;;;;;;10.38;9.38;;;20.00;43.60;;;;;;4975100;28;20189;-67
2022/03/21 01:32:46;;;;;;;10.55;9.55;;;20.00;43.80;;;;;;4975161;28;20192;-67
2022/03/21 01:35:16;;;;;;;10.38;9.48;;;20.00;43.60;;;;;;4975246;28;20180;-67
2022/03/21 01:37:43;;;;;;;10.43;9.43;;;20.00;43.60;;;;;;4960281;28;20185;-67
2022/03/21 01:40:11;;;;;;;9.73;8.90;;;20.00;43.60;;;;;;4963017;28;20207;-69
2022/03/21 01:42:37;;;;;;;10.38;9.38;;;20.00;43.70;;;;;;4979044;28;20193;-69
2022/03/21 01:45:05;;;;;;;9.90;8.88;;;20.00;43.70;;;;;;4996288;28;20183;-69
2022/03/21 01:47:33;;;;;;;9.45;8.55;;;20.00;43.70;;;;;;4996503;28;20220;-69
2022/03/21 01:49:59;;;;;;;10.25;9.25;;;20.00;43.80;;;;;;4978777;28;20185;-69
2022/03/21 01:52:25;;;;;;;9.88;8.88;;;20.00;43.80;;;;;;4962753;28;20188;-69
2022/03/21 01:57:59;;;;;;;10.18;8.85;;;20.00;43.80;;;;;;4884687;29;20223;-69
2022/03/21 02:00:25;;;;;;;9.90;8.90;;;20.00;43.60;;;;;;4882207;29;20248;-69
2022/03/21 02:02:51;;;;;;;9.73;8.80;;;20.00;43.60;;;;;;4935990;28;20202;-69
2022/03/21 02:05:17;;;;;;;9.60;8.70;;;20.00;43.50;;;;;;4959347;28;20189;-69
2022/03/21 02:07:44;;;;;;;10.15;9.15;;;20.00;43.70;;;;;;4958952;28;20217;-69
2022/03/21 02:10:10;;;;;;;9.40;8.50;;;20.00;43.70;;;;;;4959273;28;20213;-69
2022/03/21 02:12:36;;;;;;;9.48;8.48;;;20.00;43.50;;;;;;4975334;28;20189;-69
2022/03/21 02:15:03;;;;;;;8.93;8.02;;;19.90;43.60;;;;;;4959351;28;20689;-70
2022/03/21 02:17:34;;;;;;;9.40;8.50;;;19.90;43.60;;;;;;4959026;28;20191;-69
2022/03/21 02:20:04;;;;;;;8.70;7.88;;;20.00;43.60;;;;;;4974955;28;20193;-69
2022/03/21 02:23:07;;;;;;;9.25;8.35;;;19.90;43.50;;;;;;4959190;28;20397;-70
2022/03/21 02:25:43;;;;;;;9.10;8.20;;;19.90;43.60;;;;;;4976057;28;20200;-70
2022/03/21 02:28:14;;;;;;;9.48;8.57;;;20.00;43.70;;;;;;4971482;28;20249;-69
2022/03/21 02:30:46;;;;;;;9.38;8.48;;;20.00;43.60;;;;;;4977925;28;20173;-70
2022/03/21 02:33:16;;;;;;;8.88;8.07;;;20.00;43.60;;;;;;4961911;28;20267;-70
2022/03/21 02:35:48;;;;;;;9.55;8.65;;;19.90;43.40;;;;;;4977923;28;20177;-67
2022/03/21 02:38:17;;;;;;;9.35;8.50;;;19.90;43.50;;;;;;4977816;28;20201;-67
2022/03/21 02:40:43;;;;;;;9.02;8.23;;;19.90;43.50;;;;;;4977705;28;20234;-67
2022/03/21 02:43:09;;;;;;;8.73;7.88;;;19.90;43.50;;;;;;4995294;28;20192;-67
2022/03/21 02:45:34;;;;;;;9.20;8.30;;;19.90;43.60;;;;;;4994566;28;20181;-67
2022/03/21 02:48:00;;;;;;;9.23;8.43;;;19.90;43.50;;;;;;4961935;28;20212;-68
2022/03/21 02:51:01;;;;;;;9.77;7.97;;;20.00;43.60;;;;;;4994079;28;20188;-67
2022/03/21 02:53:30;;;;;;;8.73;7.90;;;19.90;43.50;;;;;;4977243;28;20184;-67
2022/03/21 02:55:57;;;;;;;8.50;7.63;;;20.00;43.60;;;;;;4976640;28;20319;-67
2022/03/21 02:58:23;;;;;;;8.90;8.00;;;19.90;43.50;;;;;;4968986;28;20315;-67
2022/03/21 03:00:49;;;;;;;8.73;7.93;;;20.00;43.60;;;;;;4969224;28;20193;-67
2022/03/21 03:03:15;;;;;;;9.50;8.60;;;19.90;43.50;;;;;;4961677;28;20189;-67
2022/03/21 03:05:41;;;;;;;9.10;8.20;;;20.00;43.60;;;;;;4966593;28;20288;-67
2022/03/21 03:08:07;;;;;;;8.90;8.00;;;19.90;43.40;;;;;;4962078;28;20205;-67
2022/03/21 03:10:32;;;;;;;9.60;8.60;;;19.90;43.50;;;;;;4977319;28;20187;-67
2022/03/21 03:12:58;;;;;;;8.90;8.10;;;19.90;43.40;;;;;;4994784;28;20274;-67
2022/03/21 03:15:24;;;;;;;8.85;7.95;;;19.90;43.40;;;;;;4961515;28;20181;-67
2022/03/21 03:17:50;;;;;;;8.20;7.50;;;20.00;43.50;;;;;;4961119;28;20205;-67
2022/03/21 03:20:16;;;;;;;8.95;8.05;;;20.00;43.50;;;;;;4977022;28;20220;-67
2022/03/21 03:22:43;;;;;;;8.52;7.72;;;19.90;43.50;;;;;;4954706;28;20247;-67
2022/03/21 03:25:10;;;;;;;8.38;7.57;;;19.90;43.50;;;;;;4961353;28;20204;-67
2022/03/21 03:27:36;;;;;;;8.40;7.70;;;19.90;43.40;;;;;;4961236;28;20215;-67
2022/03/21 03:30:02;;;;;;;7.93;7.22;;;19.90;43.40;;;;;;4977261;28;20185;-67
2022/03/21 03:32:28;;;;;;;8.45;7.65;;;19.90;43.50;;;;;;4994362;28;20181;-67
2022/03/21 03:34:55;;;;;;;8.73;7.93;;;19.90;43.60;;;;;;4961154;28;20188;-67
2022/03/21 03:37:20;;;;;;;8.32;7.57;;;19.90;43.60;;;;;;4976822;28;20195;-67
2022/03/21 03:39:46;;;;;;;8.60;7.80;;;19.90;43.50;;;;;;4960349;28;20300;-67
2022/03/21 03:42:12;;;;;;;8.20;7.40;;;19.90;43.50;;;;;;4960631;28;20240;-67
2022/03/21 03:44:38;;;;;;;8.60;7.78;;;19.90;43.50;;;;;;4976903;28;20212;-67
2022/03/21 03:47:04;;;;;;;8.15;7.35;;;19.90;43.50;;;;;;4994023;28;20224;-67
2022/03/21 03:49:30;;;;;;;7.60;6.90;;;19.90;43.50;;;;;;4976487;28;20244;-67
2022/03/21 03:51:56;;;;;;;7.97;7.25;;;19.90;43.50;;;;;;4993952;28;20232;-67
2022/03/21 03:54:22;;;;;;;8.05;7.25;;;19.90;43.50;;;;;;4989811;28;20185;-67
2022/03/21 03:56:47;;;;;;;7.63;6.93;;;19.90;43.50;;;;;;4957152;28;20189;-67
2022/03/21 04:01:50;;;;;;;8.00;7.30;;;19.90;43.50;;;;;;5029427;28;20219;-66
2022/03/21 04:04:16;;;;;;;8.00;7.20;;;19.90;43.30;;;;;;5015403;28;20270;-65
2022/03/21 04:06:41;;;;;;;8.00;7.30;;;19.90;43.40;;;;;;5015256;28;20298;-65
2022/03/21 04:09:07;;;;;;;7.93;7.20;;;19.90;43.40;;;;;;5015510;28;20206;-65
2022/03/21 04:11:34;;;;;;;8.50;7.70;;;19.90;43.40;;;;;;5032197;28;20195;-65
2022/03/21 04:13:59;;;;;;;8.13;7.32;;;19.90;43.40;;;;;;5032970;28;20191;-65
2022/03/21 04:16:25;;;;;;;7.25;6.65;;;19.90;43.40;;;;;;4998967;28;20178;-66
2022/03/21 04:18:51;;;;;;;7.75;7.05;;;19.90;43.30;;;;;;5031495;28;20212;-65
2022/03/21 04:21:16;;;;;;;7.25;6.65;;;19.90;43.30;;;;;;5015502;28;20202;-65
2022/03/21 04:23:42;;;;;;;8.07;7.28;;;19.90;43.30;;;;;;5012581;28;20188;-66
2022/03/21 04:26:09;;;;;;;7.70;7.00;;;19.90;43.40;;;;;;5015008;28;20258;-65
2022/03/21 04:28:35;;;;;;;7.90;6.95;;;19.90;43.40;;;;;;4998922;28;20234;-65
2022/03/21 04:31:01;;;;;;;7.88;7.18;;;19.80;43.40;;;;;;5014739;28;20179;-65
2022/03/21 04:33:26;;;;;;;7.28;6.57;;;19.90;43.40;;;;;;5015175;28;20179;-65
2022/03/21 04:35:52;;;;;;;7.63;6.93;;;19.90;43.40;;;;;;5014908;28;20183;-65
2022/03/21 04:38:18;;;;;;;6.90;6.30;;;19.90;43.40;;;;;;4999076;28;20179;-65
2022/03/21 04:40:47;;;;;;;7.80;7.00;;;19.80;43.30;;;;;;4998655;28;20209;-65
2022/03/21 04:43:15;;;;;;;6.93;6.32;;;19.90;43.40;;;;;;4998543;28;20187;-65
2022/03/21 04:45:43;;;;;;;7.63;6.93;;;19.80;43.90;;;;;;4998264;28;20186;-65
2022/03/21 04:48:09;;;;;;;8.18;7.38;;;19.90;43.50;;;;;;4998730;28;20175;-65
2022/03/21 04:50:36;;;;;;;8.50;7.70;;;19.80;43.40;;;;;;5014544;28;20203;-65
2022/03/21 04:53:02;;;;;;;8.20;7.43;;;19.80;43.30;;;;;;5014621;28;20191;-65
2022/03/21 04:55:29;;;;;;;7.82;7.13;;;19.90;43.40;;;;;;4998254;28;20591;-65
2022/03/21 04:57:55;;;;;;;8.10;7.35;;;19.80;43.30;;;;;;5032412;28;20183;-65
2022/03/21 05:00:21;;;;;;;8.50;7.50;;;19.90;43.30;;;;;;5014371;28;20221;-65
2022/03/21 05:02:47;;;;;;;7.88;7.18;;;19.90;43.30;;;;;;5014967;28;20282;-65
2022/03/21 05:05:13;;;;;;;9.18;7.53;;;19.80;43.20;;;;;;5032169;28;20195;-65
2022/03/21 05:07:53;;;;;;;7.70;6.93;;;19.80;43.30;;;;;;5014713;28;20240;-65
2022/03/21 05:10:22;;;;;;;7.30;6.60;;;19.80;43.20;;;;;;5014445;28;20214;-66
2022/03/21 05:12:49;;;;;;;7.00;6.30;;;19.80;43.20;;;;;;5032824;28;20562;-65
2022/03/21 05:15:15;;;;;;;7.43;6.72;;;19.80;43.30;;;;;;5018927;28;20199;-64
2022/03/21 05:17:41;;;;;;;7.22;6.63;;;19.80;43.20;;;;;;5018626;28;20214;-65
2022/03/21 05:20:27;;;;;;;6.90;6.30;;;19.80;43.20;;;;;;5018403;28;20199;-65
2022/03/21 05:31:09;;;;;;;7.43;6.82;;;19.80;43.20;;;;;;5018115;28;20206;-64
2022/03/21 05:36:29;;;;;;;6.80;6.10;;;19.80;43.20;;;;;;5036174;28;20179;-64
2022/03/21 05:38:56;;;;;;;6.82;6.22;;;19.80;43.30;;;;;;5001746;28;20249;-65
2022/03/21 05:41:22;;;;;;;6.72;6.07;;;19.80;43.30;;;;;;5035862;28;20172;-65
2022/03/21 05:43:49;;;;;;;6.90;6.30;;;19.80;43.30;;;;;;5001672;28;20191;-65
2022/03/21 05:46:15;;;;;;;7.40;6.68;;;19.80;43.20;;;;;;5035671;28;20233;-64
2022/03/21 05:48:50;;;;;;;7.47;6.78;;;19.80;43.20;;;;;;5018277;28;20625;-65
2022/03/21 05:51:30;;;;;;;7.30;6.63;;;19.80;43.20;;;;;;5018125;28;20195;-64
2022/03/21 05:53:59;;;;;;;7.38;6.68;;;19.80;43.20;;;;;;5035466;28;20183;-66
2022/03/21 05:56:27;;;;;;;8.52;7.25;;;19.80;43.20;;;;;;5018131;28;20270;-65
2022/03/21 05:58:54;;;;;;;7.43;6.72;;;19.80;43.10;;;;;;5001251;28;20207;-66
2022/03/21 06:01:22;;;;;;;7.40;6.70;;;19.80;43.00;;;;;;5001499;28;20635;-64
2022/03/21 06:03:55;;;;;;;7.35;6.68;;;19.80;43.00;;;;;;5017910;28;20237;-65
2022/03/21 06:06:22;;;;;;;7.85;6.80;;;19.80;43.10;;;;;;5017887;28;20203;-64
2022/03/21 06:08:51;;;;;;;7.22;6.57;;;19.80;43.10;;;;;;5001188;28;20210;-65
2022/03/21 06:11:17;;;;;;;7.13;6.45;;;19.80;43.20;;;;;;5001493;28;20184;-67
2022/03/21 06:13:43;;;;;;;7.43;6.65;;;19.80;42.60;;;;;;5001167;28;20183;-66
2022/03/21 06:16:10;;;;;;;6.90;6.30;;;19.80;43.30;;;;;;5035517;28;20171;-65
2022/03/21 06:18:38;;;;;;;6.82;6.13;;;19.80;43.30;;;;;;5001358;28;20176;-65
2022/03/21 06:21:07;;;;;;;6.78;6.18;;;19.80;43.30;;;;;;5000908;28;20195;-65
2022/03/21 06:23:34;;;;;;;6.80;6.10;;;19.80;43.30;;;;;;5000527;28;20660;-65
2022/03/21 06:26:00;;;;;;;6.90;6.30;;;19.80;43.30;;;;;;5016775;28;20211;-65
2022/03/21 06:28:28;;;;;;;7.78;6.80;;;19.80;43.30;;;;;;5017416;28;20187;-65
2022/03/21 06:30:54;;;;;;;7.07;6.38;;;19.80;43.30;;;;;;5017390;28;20183;-66
2022/03/21 06:33:24;;;;;;;8.07;6.85;;;19.80;43.30;;;;;;5034863;28;20210;-66
2022/03/21 06:35:52;;;;;;;7.07;6.38;;;19.80;43.20;;;;;;5017030;28;20179;-65
2022/03/21 06:38:18;;;;;;;7.38;6.68;;;19.80;43.20;;;;;;5034774;28;20199;-66
2022/03/21 06:40:44;;;;;;;7.88;7.18;;;19.80;43.20;;;;;;5017239;28;20683;-65
2022/03/21 06:43:12;;;;;;;8.32;7.32;;;19.90;43.30;;;;;;5017374;28;20178;-66
2022/03/21 06:45:38;;;;;;;8.43;7.72;;;19.80;43.10;;;;;;5034687;28;20186;-66
2022/03/21 06:48:05;;;;;;;8.32;7.53;;;19.80;43.10;;;;;;5033350;28;20179;-66
2022/03/21 06:50:30;;;;;;;7.90;7.20;;;19.80;43.10;;;;;;5015529;28;20708;-66
2022/03/21 06:52:56;;;;;;;7.65;6.95;;;19.80;43.00;;;;;;5014093;28;20183;-65
2022/03/21 06:55:25;;;;;;;7.05;6.45;;;19.90;43.20;;;;;;5034444;28;20686;-66
2022/03/21 06:57:51;;;;;;;7.40;6.70;;;19.90;43.10;;;;;;5016972;28;20187;-65
2022/03/21 07:00:17;;;;;;;6.90;6.18;;;19.90;43.10;;;;;;5016532;28;20215;-65
2022/03/21 07:02:44;;;;;;;7.35;6.65;;;19.90;43.20;;;;;;5016978;28;20412;-66
2022/03/21 07:05:11;;;;;;;7.07;6.40;;;19.90;43.10;;;;;;5018920;28;20241;-65
2022/03/21 07:07:37;;;;;;;7.07;6.47;;;19.90;43.10;;;;;;5002866;28;20278;-65
2022/03/21 07:10:09;;;;;;;7.15;6.45;;;19.90;43.00;;;;;;5000132;28;20273;-65
2022/03/21 07:12:35;;;;;;;7.07;6.38;;;19.90;43.00;;;;;;5016790;28;20632;-65
2022/03/21 07:15:05;;;;;;;6.70;6.10;;;20.00;43.10;;;;;;5016086;28;20194;-65
2022/03/21 07:17:31;;;;;;;7.20;6.45;;;20.00;43.00;;;;;;4999740;28;20581;-66
2022/03/21 07:19:57;;;;;;;7.25;6.55;;;20.00;43.00;;;;;;5015987;28;20261;-66
2022/03/21 07:22:23;;;;;;;7.55;6.65;;;20.00;43.00;;;;;;5021782;28;20182;-66
2022/03/21 07:24:49;;;;;;;7.82;7.03;;;20.00;42.90;;;;;;5019631;28;20187;-65
2022/03/21 07:27:16;;;;;;;7.45;6.75;;;20.00;42.90;;;;;;5033574;28;20265;-66
2022/03/21 07:29:42;;;;;;;7.38;6.78;;;20.10;42.90;;;;;;4999581;28;20207;-65
2022/03/21 07:32:09;;;;;;;7.30;6.70;;;20.10;42.90;;;;;;5016224;28;20633;-66
2022/03/21 07:34:34;;;;;;;7.22;6.63;;;20.10;42.90;;;;;;5033293;28;20199;-65
2022/03/21 07:37:00;;;;;;;7.90;7.20;;;20.10;42.90;;;;;;5015713;28;20195;-66
2022/03/21 07:39:26;;;;;;;7.78;7.07;;;20.10;42.90;;;;;;5015667;28;20218;-64
2022/03/21 07:41:59;;;;;;;7.50;6.80;;;20.10;42.80;;;;;;4999684;28;20187;-66
2022/03/21 07:47:17;;;;;;;7.32;6.72;;;20.10;42.70;;;;;;5025521;28;20643;-66
2022/03/21 07:49:46;;;;;;;7.68;6.97;;;20.10;42.70;;;;;;4996290;28;20299;-67
2022/03/21 07:52:12;;;;;;;6.90;6.30;;;20.20;42.90;;;;;;5029206;28;20183;-67
2022/03/21 07:54:41;;;;;;;7.18;6.55;;;20.20;42.90;;;;;;5018158;28;20213;-67
2022/03/21 07:57:07;;;;;;;6.88;6.28;;;20.20;42.80;;;;;;4999870;28;20201;-66
2022/03/21 07:59:33;;;;;;;6.60;6.00;;;20.20;42.80;;;;;;4998867;28;20920;-67
2022/03/21 08:01:59;;;;;;;6.63;6.03;;;20.20;42.90;;;;;;4999183;28;20222;-67
2022/03/21 08:04:25;;;;;;;6.78;6.18;;;20.20;42.80;;;;;;4999051;28;20194;-66
2022/03/21 08:06:53;;;;;;;6.57;5.97;;;20.20;42.80;;;;;;5032789;28;20593;-67
2022/03/21 08:09:19;;;;;;;6.95;6.35;;;20.20;42.80;;;;;;4995768;28;20200;-66
2022/03/21 08:11:46;;;;;;;7.63;6.95;;;20.30;43.50;;;;;;4995702;28;20186;-67
2022/03/21 08:14:11;;;;;;;7.75;6.90;;;20.30;42.90;;;;;;5018692;28;20228;-67
2022/03/21 08:16:37;;;;;;;7.13;6.53;;;20.30;42.90;;;;;;5014827;28;20188;-66
2022/03/21 08:19:04;;;;;;;6.80;6.20;;;20.30;42.80;;;;;;5015124;28;20238;-66
2022/03/21 08:21:29;;;;;;;7.05;6.45;;;20.30;42.80;;;;;;5037378;28;20182;-66
2022/03/21 08:23:55;;;;;;;7.13;6.53;;;20.30;42.80;;;;;;5015929;28;20233;-66
2022/03/21 08:26:21;;;;;;;7.30;6.60;;;20.30;42.80;;;;;;5014646;28;20264;-66
2022/03/21 08:28:47;;;;;;;7.63;6.93;;;20.30;42.90;;;;;;5029629;28;20203;-66
2022/03/21 08:31:15;;;;;;;6.95;6.35;;;20.30;42.90;;;;;;5031647;28;20226;-67
2022/03/21 08:33:42;;;;;;;7.03;6.32;;;20.30;42.80;;;;;;4998856;28;20245;-67
2022/03/21 08:36:09;;;;;;;7.20;6.50;;;20.30;42.90;;;;;;5002473;28;20183;-66
2022/03/21 08:38:34;;;;;;;8.27;6.80;;;20.30;42.90;;;;;;5004715;28;20206;-67
2022/03/21 08:41:00;;;;;;;7.55;6.85;;;20.30;42.80;;;;;;5021549;28;20222;-68
2022/03/21 08:43:27;;;;;;;6.72;6.13;;;20.30;42.90;;;;;;4997232;28;20190;-67
2022/03/21 08:45:53;;;;;;;7.38;6.68;;;20.40;43.00;;;;;;5025037;28;20269;-66
2022/03/21 08:48:18;;;;;;;7.00;6.40;;;20.40;43.00;;;;;;5014497;28;20278;-67
2022/03/21 08:50:44;;;;;;;7.72;6.97;;;20.40;43.00;;;;;;5014661;28;20203;-67
2022/03/21 08:53:10;;;;;;;7.18;6.57;;;20.40;43.00;;;;;;5014700;28;20186;-67
2022/03/21 08:55:36;;;;;;;7.32;6.72;;;20.40;43.00;;;;;;5014560;28;20242;-67
2022/03/21 08:58:02;;;;;;;6.90;6.30;;;20.40;43.10;;;;;;5014578;28;20234;-67
2022/03/21 09:00:28;;;;;;;7.28;6.57;;;20.40;43.10;;;;;;5006334;28;20222;-67
2022/03/21 09:02:55;;;;;;;7.47;6.78;;;20.40;43.00;;;;;;4995055;28;20227;-67
2022/03/21 09:05:22;;;;;;;6.72;6.13;;;20.40;43.00;;;;;;5014785;28;20195;-66
2022/03/21 09:07:48;;;;;;;7.20;6.50;;;20.40;43.10;;;;;;4997863;28;20222;-67
2022/03/21 09:10:15;;;;;;;7.15;6.38;;;20.40;43.20;;;;;;5014467;28;20210;-67
2022/03/21 09:12:44;;;;;;;7.60;6.50;;;20.40;43.20;;;;;;5014413;28;20175;-67
2022/03/21 09:15:11;;;;;;;7.15;6.55;;;20.40;43.20;;;;;;4997812;28;20672;-67
2022/03/21 09:17:38;;;;;;;6.85;6.25;;;20.40;43.20;;;;;;5019428;28;20187;-67
2022/03/21 09:20:06;;;;;;;6.63;6.00;;;20.40;43.10;;;;;;5014284;28;20264;-67
2022/03/21 09:22:32;;;;;;;6.88;6.28;;;20.40;43.10;;;;;;5032031;28;20296;-67
2022/03/21 09:24:58;;;;;;;7.45;6.78;;;20.40;43.20;;;;;;5016566;28;20208;-67
2022/03/21 09:27:24;;;;;;;6.57;5.97;;;20.40;43.10;;;;;;4997669;28;20290;-67
2022/03/21 09:29:50;;;;;;;7.15;6.55;;;20.40;43.10;;;;;;5014235;28;20738;-67
2022/03/21 09:32:17;;;;;;;6.15;5.57;;;20.40;43.10;;;;;;5014432;28;20179;-67
2022/03/21 09:34:44;;;;;;;7.40;6.78;;;20.40;43.10;;;;;;4995217;28;20677;-67
2022/03/21 09:37:11;;;;;;;7.03;6.32;;;20.40;43.10;;;;;;5030620;28;20262;-67
2022/03/21 09:39:36;;;;;;;6.82;6.22;;;20.40;43.10;;;;;;5031585;28;20207;-67
2022/03/21 09:42:03;;;;;;;6.80;6.20;;;20.40;43.10;;;;;;5014518;28;20187;-67
2022/03/21 09:44:29;;;;;;;6.72;6.13;;;20.40;43.10;;;;;;5014213;28;20183;-67
2022/03/21 09:46:57;;;;;;;6.65;6.00;;;20.40;43.10;;;;;;4998441;28;20215;-67
2022/03/21 09:49:28;;;;;;;6.97;6.38;;;20.40;43.10;;;;;;4997603;28;20205;-65
2022/03/21 09:51:54;;;;;;;7.05;6.45;;;20.40;43.10;;;;;;5014158;28;20172;-67
2022/03/21 09:54:20;;;;;;;6.35;5.82;;;20.40;43.10;;;;;;5031390;28;20190;-66
2022/03/21 09:56:47;;;;;;;6.80;6.10;;;20.40;43.10;;;;;;5014139;28;20188;-66
2022/03/21 10:01:47;;;;;;;6.82;6.22;;;20.40;43.10;;;;;;4989539;28;20214;-68
2022/03/21 10:04:13;;;;;;;6.85;6.15;;;20.40;43.10;;;;;;4991954;28;20265;-68
2022/03/21 10:06:44;;;;;;;6.60;6.00;;;20.40;43.10;;;;;;4978182;28;20224;-68
2022/03/21 10:09:15;;;;;;;6.28;5.68;;;20.40;43.10;;;;;;4995677;28;20242;-68
2022/03/21 10:11:57;;;;;;;6.38;5.78;;;20.40;43.10;;;;;;4978297;28;20260;-68
2022/03/21 10:14:33;;;;;;;6.38;5.75;;;20.40;43.10;;;;;;4976200;28;20184;-69
2022/03/21 10:17:06;;;;;;;6.03;5.53;;;20.40;43.10;;;;;;4959055;28;20188;-68
2022/03/21 10:19:58;;;;;;;6.43;5.93;;;20.40;43.10;;;;;;4958844;28;20213;-68
2022/03/21 10:22:36;;;;;;;6.47;5.88;;;20.40;43.10;;;;;;4943602;28;20202;-68
2022/03/21 10:25:08;;;;;;;6.60;6.00;;;20.40;43.00;;;;;;4947627;28;20247;-68
2022/03/21 10:27:39;;;;;;;6.18;5.57;;;20.40;43.00;;;;;;4958696;28;20728;-68
2022/03/21 10:30:21;;;;;;;6.47;5.85;;;20.50;43.00;;;;;;4980327;28;20263;-68
2022/03/21 10:32:56;;;;;;;6.25;5.65;;;20.40;43.00;;;;;;4994527;28;20561;-68
2022/03/21 10:35:46;;;;;;;6.30;5.55;;;20.50;43.10;;;;;;4987824;28;20720;-68
2022/03/21 10:38:12;;;;;;;6.07;5.43;;;20.50;43.10;;;;;;4949160;28;20194;-68
2022/03/21 10:40:47;;;;;;;5.35;4.90;;;20.50;43.20;;;;;;4963342;28;20197;-68
2022/03/21 10:43:16;;;;;;;6.30;5.70;;;20.50;43.30;;;;;;4978180;28;20180;-68
2022/03/21 10:45:51;;;;;;;6.03;5.43;;;20.50;43.30;;;;;;4969955;28;20188;-69
2022/03/21 10:48:25;;;;;;;6.18;5.57;;;20.50;43.20;;;;;;4956815;28;20211;-71
2022/03/21 10:50:54;;;;;;;7.22;6.18;;;20.50;43.10;;;;;;4982354;28;20318;-69
2022/03/21 10:53:23;;;;;;;6.13;5.55;;;20.50;43.70;;;;;;4977383;28;20204;-70
2022/03/21 10:55:59;;;;;;;6.15;5.50;;;20.50;43.00;;;;;;4962225;28;20193;-70
2022/03/21 10:58:56;;;;;;;5.93;5.43;;;20.50;43.10;;;;;;4980485;28;20219;-69
2022/03/21 11:01:29;;;;;;;6.63;5.93;;;20.50;43.00;;;;;;4966382;28;20248;-69
2022/03/21 11:03:59;;;;;;;6.50;5.80;;;20.50;43.00;;;;;;4962614;28;20213;-69
2022/03/21 11:06:29;;;;;;;5.93;5.43;;;20.50;42.90;;;;;;4973966;28;20248;-69
2022/03/21 11:08:55;;;;;;;6.78;5.70;;;20.50;43.00;;;;;;4974648;28;20213;-69
2022/03/21 11:11:23;;;;;;;6.15;5.18;;;20.50;42.90;;;;;;4990994;28;20240;-70
2022/03/21 11:13:53;;;;;;;6.20;5.60;;;20.50;42.90;;;;;;4977427;28;20735;-69
2022/03/21 11:16:20;;;;;;;7.55;5.35;;;20.50;42.80;;;;;;4960598;28;20713;-70
2022/03/21 11:18:47;;;;;;;6.72;5.82;;;20.50;42.80;;;;;;4957960;28;20193;-70
2022/03/21 11:21:13;;;;;;;6.35;5.63;;;20.50;42.80;;;;;;4957862;28;20205;-70
2022/03/21 11:23:40;;;;;;;6.13;5.20;;;20.50;42.80;;;;;;4974124;28;20217;-71
2022/03/21 11:26:39;;;;;;;6.07;5.07;;;20.50;42.80;;;;;;4960031;28;20192;-70
2022/03/21 11:29:33;;;;;;;6.78;5.35;;;20.50;42.80;;;;;;4957838;28;20174;-69
2022/03/21 11:32:37;;;;;;;5.95;5.40;;;20.50;42.80;;;;;;4979218;28;20193;-71
2022/03/21 11:35:12;;;;;;;5.80;5.30;;;20.50;42.80;;;;;;4957583;28;20260;-70
2022/03/21 11:37:38;;;;;;;5.65;5.13;;;20.50;42.90;;;;;;4973898;28;20183;-70
2022/03/21 11:40:24;;;;;;;5.97;4.88;;;20.50;42.90;;;;;;4992637;28;20275;-70
2022/03/21 11:42:50;;;;;;;5.97;5.38;;;20.50;42.90;;;;;;4993257;28;20180;-70
2022/03/21 11:45:29;;;;;;;6.28;5.65;;;20.60;42.90;;;;;;4984582;28;20217;-70
2022/03/21 11:48:22;;;;;;;6.00;4.93;;;20.50;42.80;;;;;;4957263;28;20276;-70
2022/03/21 11:51:10;;;;;;;7.20;5.82;;;20.50;42.90;;;;;;4957480;28;20217;-70
2022/03/21 11:53:46;;;;;;;6.68;5.20;;;20.50;42.80;;;;;;4970222;28;20658;-70
2022/03/21 11:56:43;;;;;;;7.05;5.95;;;20.50;42.70;;;;;;4959086;28;20181;-70
2022/03/21 11:59:32;;;;;;;6.03;5.47;;;20.50;42.60;;;;;;4973284;28;20208;-70
2022/03/21 12:02:07;;;;;;;7.28;5.32;;;20.50;42.70;;;;;;4989528;28;20217;-70
2022/03/21 12:04:34;;;;;;;7.32;5.75;;;20.50;42.80;;;;;;4974209;28;20664;-70
2022/03/21 12:07:12;;;;;;;6.80;6.20;;;20.50;42.80;;;;;;4957255;28;20264;-70
2022/03/21 12:09:43;;;;;;;8.20;5.85;;;20.50;42.60;;;;;;4957115;28;20205;-70
2022/03/21 12:12:14;;;;;;;7.43;5.85;;;20.50;42.60;;;;;;4973261;28;20273;-71
2022/03/21 12:14:54;;;;;;;6.28;5.53;;;20.50;42.80;;;;;;4956808;28;20193;-70
2022/03/21 12:17:23;;;;;;;6.63;5.70;;;20.50;42.70;;;;;;4973714;28;20182;-71
2022/03/21 12:19:54;;;;;;;6.35;5.75;;;20.50;42.80;;;;;;4956634;28;20304;-70
2022/03/21 12:22:43;;;;;;;6.45;5.15;;;20.50;42.80;;;;;;4956206;28;20189;-70
2022/03/21 12:25:46;;;;;;;6.40;5.75;;;20.50;42.90;;;;;;4956552;28;20197;-70
2022/03/21 12:31:26;;;;;;;7.85;5.28;;;20.50;42.80;;;;;;4980383;28;20294;-70
2022/03/21 12:34:13;;;;;;;6.13;5.53;;;20.50;42.80;;;;;;4955693;28;20186;-70
2022/03/21 12:36:39;;;;;;;7.55;5.93;;;20.50;42.80;;;;;;4973224;28;20192;-70
2022/03/21 12:39:18;;;;;;;6.68;5.60;;;20.50;42.80;;;;;;4972853;28;20182;-70
2022/03/21 12:41:46;;;;;;;6.18;4.97;;;20.60;42.80;;;;;;4956204;28;20177;-70
2022/03/21 12:44:13;;;;;;;6.20;5.40;;;20.60;43.00;;;;;;4952029;28;20242;-70
2022/03/21 12:46:39;;;;;;;5.40;4.90;;;20.60;43.00;;;;;;4961946;28;20292;-70
2022/03/21 12:49:05;;;;;;;6.20;5.60;;;20.60;43.00;;;;;;4973679;28;20296;-70
2022/03/21 12:51:34;;;;;;;6.10;5.50;;;20.50;42.80;;;;;;4956210;28;20217;-71
2022/03/21 12:54:03;;;;;;;6.75;5.47;;;20.60;42.80;;;;;;4972320;28;20186;-70
2022/03/21 12:56:30;;;;;;;6.30;5.30;;;20.60;42.90;;;;;;4955950;28;20181;-70
2022/03/21 12:58:59;;;;;;;6.53;4.72;;;20.50;42.70;;;;;;4944805;28;20662;-70
2022/03/21 13:01:26;;;;;;;6.20;5.28;;;20.50;42.80;;;;;;4991775;28;20220;-70
2022/03/21 13:12:26;;;;;;;7.60;5.10;;;20.60;42.90;;;;;;4972193;28;20185;-70
2022/03/21 13:15:05;;;;;;;5.50;4.90;;;20.60;43.00;;;;;;4959783;28;20197;-70
2022/03/21 13:17:45;;;;;;;7.50;5.32;;;20.60;42.90;;;;;;4959952;28;20192;-70
2022/03/21 13:20:15;;;;;;;5.95;4.80;;;20.60;42.80;;;;;;4973088;28;20296;-70
2022/03/21 13:22:41;;;;;;;5.90;4.82;;;20.60;43.00;;;;;;4987704;28;20181;-70
2022/03/21 13:25:35;;;;;;;6.97;5.03;;;20.60;42.90;;;;;;4964602;28;20189;-70
2022/03/21 13:28:14;;;;;;;6.45;4.15;;;20.60;43.00;;;;;;4959861;28;20213;-70
2022/03/21 13:31:01;;;;;;;5.63;4.90;;;20.50;42.80;;;;;;4955906;28;20232;-70